createdAt,value
2018-12-23T00:00:23.387Z,28.40
2018-12-23T00:02:55.223Z,26.57
2018-12-23T00:05:27.206Z,31.70
2018-12-23T00:07:59.131Z,36.58
2018-12-23T00:10:31.275Z,40.05
2018-12-23T00:13:03.378Z,41.83
2018-12-23T00:15:35.508Z,36.60
2018-12-23T00:18:07.619Z,39.33
2018-12-23T00:20:39.828Z,34.70
2018-12-23T00:23:11.886Z,34.00
2018-12-23T00:25:43.949Z,29.30
2018-12-23T00:28:15.980Z,34.77
2018-12-23T00:30:47.860Z,33.50
2018-12-23T00:33:20.072Z,35.37
2018-12-23T00:35:52.172Z,36.13
2018-12-23T00:38:24.220Z,40.07
2018-12-23T00:40:56.247Z,33.87
2018-12-23T00:43:28.191Z,45.77
2018-12-23T00:46:00.494Z,31.97
2018-12-23T00:48:32.523Z,41.43
2018-12-23T00:51:04.568Z,34.13
2018-12-23T00:53:36.592Z,34.17
2018-12-23T00:56:08.717Z,34.07
2018-12-23T00:58:40.625Z,36.00
2018-12-23T01:01:12.633Z,33.00
2018-12-23T01:03:44.817Z,22.10
2018-12-23T01:06:16.936Z,20.43
2018-12-23T01:08:48.895Z,26.80
2018-12-23T01:11:21.717Z,25.47
2018-12-23T01:13:53.892Z,29.20
2018-12-23T01:16:26.026Z,35.30
2018-12-23T01:18:58.020Z,50.83
2018-12-23T01:21:31.007Z,27.75
2018-12-23T01:24:03.050Z,29.77
2018-12-23T01:26:34.977Z,30.17
2018-12-23T01:29:07.049Z,44.95
2018-12-23T01:31:39.069Z,40.97
2018-12-23T01:34:11.059Z,34.20
2018-12-23T01:36:43.027Z,43.13
2018-12-23T01:39:15.110Z,54.60
2018-12-23T01:41:47.716Z,30.77
2018-12-23T01:44:19.679Z,43.80
2018-12-23T01:46:51.688Z,37.07
2018-12-23T01:49:23.673Z,50.00
2018-12-23T01:51:55.809Z,49.13
2018-12-23T01:54:27.892Z,42.37
2018-12-23T01:56:59.911Z,81.00
2018-12-23T01:59:32.478Z,40.28
2018-12-23T02:02:04.419Z,31.37
2018-12-23T02:04:36.594Z,34.33
2018-12-23T02:07:08.734Z,49.00
2018-12-23T02:09:40.814Z,33.63
2018-12-23T02:12:12.815Z,47.35
2018-12-23T02:14:44.721Z,38.07
2018-12-23T02:17:16.625Z,29.55
2018-12-23T02:19:48.578Z,30.47
2018-12-23T02:22:20.733Z,38.13
2018-12-23T02:24:52.865Z,31.33
2018-12-23T02:27:24.963Z,31.30
2018-12-23T02:29:57.248Z,32.63
2018-12-23T02:32:29.200Z,40.77
2018-12-23T02:35:01.346Z,33.90
2018-12-23T02:37:33.399Z,34.38
2018-12-23T02:40:05.420Z,44.00
2018-12-23T02:42:37.410Z,41.07
2018-12-23T02:45:09.303Z,37.55
2018-12-23T02:47:41.390Z,39.83
2018-12-23T02:50:13.404Z,28.47
2018-12-23T02:52:45.520Z,25.27
2018-12-23T02:55:17.681Z,34.20
2018-12-23T02:57:49.992Z,42.30
2018-12-23T03:00:22.288Z,33.87
2018-12-23T03:02:54.297Z,33.03
2018-12-23T03:05:27.122Z,33.60
2018-12-23T03:07:59.074Z,37.50
2018-12-23T03:10:31.014Z,27.10
2018-12-23T03:13:03.181Z,27.67
2018-12-23T03:15:35.261Z,29.23
2018-12-23T03:18:07.268Z,28.63
2018-12-23T03:20:40.194Z,29.23
2018-12-23T03:23:12.107Z,26.83
2018-12-23T03:25:44.155Z,29.45
2018-12-23T03:28:16.283Z,25.33
2018-12-23T03:30:48.398Z,31.07
2018-12-23T03:33:20.508Z,26.33
2018-12-23T03:35:52.506Z,25.67
2018-12-23T03:38:24.578Z,23.83
2018-12-23T03:40:56.610Z,21.33
2018-12-23T03:43:28.687Z,22.27
2018-12-23T03:46:00.769Z,31.23
2018-12-23T03:48:32.772Z,29.17
2018-12-23T03:51:04.816Z,19.23
2018-12-23T03:53:36.909Z,27.60
2018-12-23T03:56:08.879Z,22.73
2018-12-23T03:58:40.889Z,23.45
2018-12-23T04:01:12.867Z,24.00
2018-12-23T04:03:45.020Z,28.77
2018-12-23T04:06:24.399Z,16.37
2018-12-23T04:08:51.298Z,18.07
2018-12-23T04:11:23.548Z,20.97
2018-12-23T04:13:55.616Z,19.30
2018-12-23T04:16:27.543Z,16.10
2018-12-23T04:18:59.584Z,19.17
2018-12-23T04:21:31.638Z,20.90
2018-12-23T04:24:03.599Z,18.77
2018-12-23T04:26:35.499Z,13.80
2018-12-23T04:29:07.438Z,15.23
2018-12-23T04:31:39.233Z,17.23
2018-12-23T04:34:11.317Z,41.40
2018-12-23T04:36:44.026Z,12.20
2018-12-23T04:39:15.883Z,15.80
2018-12-23T04:41:47.933Z,16.93
2018-12-23T04:44:20.021Z,15.47
2018-12-23T04:46:52.042Z,20.83
2018-12-23T04:49:24.112Z,34.97
2018-12-23T04:51:56.422Z,26.77
2018-12-23T04:54:28.274Z,14.97
2018-12-23T04:57:00.263Z,19.23
2018-12-23T04:59:32.372Z,19.03
2018-12-23T05:02:04.369Z,23.07
2018-12-23T05:04:36.249Z,20.30
2018-12-23T05:07:08.217Z,14.67
2018-12-23T05:09:40.233Z,30.53
2018-12-23T05:12:12.097Z,17.93
2018-12-23T05:14:44.816Z,19.50
2018-12-23T05:17:17.027Z,18.23
2018-12-23T05:19:48.996Z,15.40
2018-12-23T05:22:21.080Z,19.57
2018-12-23T05:24:52.956Z,13.07
2018-12-23T05:27:24.907Z,15.30
2018-12-23T05:29:56.940Z,12.80
2018-12-23T05:32:28.919Z,20.13
2018-12-23T05:35:01.055Z,16.80
2018-12-23T05:37:33.045Z,14.60
2018-12-23T05:40:05.338Z,17.47
2018-12-23T05:42:37.521Z,14.80
2018-12-23T05:45:09.383Z,14.90
2018-12-23T05:47:41.424Z,9.98
2018-12-23T05:50:13.363Z,11.20
2018-12-23T05:52:45.373Z,5.73
2018-12-23T05:55:25.475Z,11.27
2018-12-23T05:57:57.339Z,12.70
2018-12-23T06:00:29.188Z,13.20
2018-12-23T06:03:01.316Z,19.95
2018-12-23T06:05:33.284Z,11.08
2018-12-23T06:08:05.430Z,18.53
2018-12-23T06:10:37.317Z,9.23
2018-12-23T06:13:09.207Z,17.60
2018-12-23T06:15:41.024Z,5.97
2018-12-23T06:18:12.927Z,9.67
2018-12-23T06:20:44.958Z,11.30
2018-12-23T06:23:17.011Z,12.87
2018-12-23T06:25:48.920Z,9.43
2018-12-23T06:28:20.938Z,7.67
2018-12-23T06:30:52.970Z,16.43
2018-12-23T06:33:24.893Z,19.25
2018-12-23T06:35:57.023Z,18.00
2018-12-23T06:38:29.350Z,10.00
2018-12-23T06:41:01.548Z,9.50
2018-12-23T06:43:33.531Z,10.27
2018-12-23T06:46:05.667Z,19.13
2018-12-23T06:48:37.687Z,14.87
2018-12-23T06:51:09.974Z,17.87
2018-12-23T06:53:42.079Z,18.97
2018-12-23T06:56:14.469Z,16.30
2018-12-23T06:58:46.418Z,21.65
2018-12-23T07:01:19.810Z,22.53
2018-12-23T07:03:51.877Z,15.50
2018-12-23T07:06:23.825Z,15.50
2018-12-23T07:08:55.910Z,12.17
2018-12-23T07:11:29.492Z,18.23
2018-12-23T07:14:01.377Z,17.20
2018-12-23T07:16:33.345Z,21.70
2018-12-23T07:19:05.300Z,15.87
2018-12-23T07:21:37.312Z,19.60
2018-12-23T07:24:09.399Z,26.33
2018-12-23T07:26:43.568Z,19.15
2018-12-23T07:29:15.595Z,17.57
2018-12-23T07:31:47.832Z,16.42
2018-12-23T07:34:20.093Z,15.13
2018-12-23T07:36:52.061Z,21.30
2018-12-23T07:39:24.437Z,15.57
2018-12-23T07:42:12.314Z,18.20
2018-12-23T07:44:50.864Z,12.13
2018-12-23T07:47:24.321Z,17.63
2018-12-23T07:49:58.098Z,16.15
2018-12-23T08:07:10.603Z,21.10
2018-12-23T08:09:43.788Z,17.77
2018-12-23T08:12:16.806Z,18.30
2018-12-23T08:14:50.141Z,19.20
2018-12-23T08:17:23.234Z,30.80
2018-12-23T08:19:56.273Z,15.73
2018-12-23T08:22:29.679Z,17.73
2018-12-23T08:25:02.829Z,20.03
2018-12-23T08:27:35.955Z,24.93
2018-12-23T08:30:09.652Z,18.43
2018-12-23T08:32:42.928Z,25.77
2018-12-23T08:35:15.965Z,28.80
2018-12-23T08:37:49.460Z,27.47
2018-12-23T08:40:22.665Z,22.80
2018-12-23T08:42:56.109Z,27.27
2018-12-23T08:45:29.119Z,29.80
2018-12-23T08:48:02.288Z,29.30
2018-12-23T08:50:35.757Z,31.90
2018-12-23T08:53:09.089Z,25.83
2018-12-23T08:55:43.582Z,31.57
2018-12-23T08:58:17.382Z,31.43
2018-12-23T09:00:51.749Z,31.15
2018-12-23T09:03:32.368Z,36.40
2018-12-23T09:06:13.057Z,30.73
2018-12-23T09:09:03.110Z,29.50
2018-12-23T09:11:42.852Z,31.17
2018-12-23T09:14:11.183Z,34.40
2018-12-23T09:16:44.251Z,35.63
2018-12-23T09:19:17.434Z,39.73
2018-12-23T09:21:50.732Z,35.33
2018-12-23T09:24:23.916Z,33.57
2018-12-23T09:26:56.994Z,39.13
2018-12-23T09:29:30.040Z,40.43
2018-12-23T09:32:03.347Z,39.90
2018-12-23T09:34:37.183Z,37.67
2018-12-23T09:37:10.387Z,35.30
2018-12-23T09:39:43.461Z,36.07
2018-12-23T09:42:16.585Z,34.87
2018-12-23T09:44:49.673Z,35.60
2018-12-23T09:47:22.732Z,36.37
2018-12-23T09:49:58.801Z,35.50
2018-12-23T09:52:31.928Z,37.57
2018-12-23T09:55:05.613Z,36.70
2018-12-23T09:57:38.708Z,37.93
2018-12-23T10:00:11.995Z,34.13
2018-12-23T10:02:45.476Z,41.47
2018-12-23T10:05:18.683Z,34.70
2018-12-23T10:07:52.019Z,40.07
2018-12-23T10:10:28.550Z,34.75
2018-12-23T10:13:00.063Z,35.00
2018-12-23T10:15:35.516Z,41.67
2018-12-23T10:18:08.819Z,39.67
2018-12-23T10:20:42.176Z,35.47
2018-12-23T10:23:15.795Z,38.90
2018-12-23T10:25:48.846Z,37.53
2018-12-23T10:28:22.040Z,39.17
2018-12-23T10:30:55.402Z,36.57
2018-12-23T10:33:28.509Z,41.73
2018-12-23T10:36:02.297Z,41.10
2018-12-23T10:38:35.528Z,36.48
2018-12-23T10:41:08.689Z,45.10
2018-12-23T10:43:41.793Z,40.63
2018-12-23T10:46:14.915Z,39.60
2018-12-23T10:48:48.336Z,41.50
2018-12-23T10:51:21.886Z,39.93
2018-12-23T10:53:56.803Z,42.93
2018-12-23T10:56:48.238Z,33.40
2018-12-23T10:59:21.505Z,39.20
2018-12-23T11:01:54.546Z,38.80
2018-12-23T11:04:28.091Z,37.77
2018-12-23T11:07:02.290Z,40.43
2018-12-23T11:09:35.465Z,37.80
2018-12-23T11:12:11.575Z,41.43
2018-12-23T11:14:46.138Z,36.90
2018-12-23T11:17:19.960Z,42.60
2018-12-23T11:19:54.791Z,38.07
2018-12-23T11:22:28.944Z,45.00
2018-12-23T11:25:02.596Z,40.60
2018-12-23T11:27:35.579Z,39.73
2018-12-23T11:30:10.013Z,40.20
2018-12-23T11:32:43.297Z,34.85
2018-12-23T11:35:16.623Z,37.95
2018-12-23T11:37:49.959Z,39.27
2018-12-23T11:40:23.476Z,45.87
2018-12-23T11:42:56.464Z,38.17
2018-12-23T11:45:30.130Z,44.20
2018-12-23T11:48:03.649Z,43.47
2018-12-23T11:50:36.953Z,35.85
2018-12-23T11:53:10.251Z,42.63
2018-12-23T11:55:43.585Z,37.30
2018-12-23T11:58:17.006Z,38.43
2018-12-23T12:00:50.490Z,36.87
2018-12-23T12:03:24.657Z,40.50
2018-12-23T12:05:58.536Z,35.13
2018-12-23T12:08:31.960Z,39.90
2018-12-23T12:11:06.381Z,39.53
2018-12-23T12:13:39.681Z,39.30
2018-12-23T12:16:12.849Z,41.15
2018-12-23T12:18:46.458Z,40.92
2018-12-23T12:21:19.869Z,44.58
2018-12-23T12:23:52.972Z,51.67
2018-12-23T12:26:26.247Z,45.63
2018-12-23T12:28:59.830Z,45.13
2018-12-23T12:31:33.159Z,40.05
2018-12-23T12:34:07.241Z,48.10
2018-12-23T12:36:40.430Z,42.17
2018-12-23T12:39:14.092Z,38.87
2018-12-23T12:41:47.494Z,40.97
2018-12-23T12:44:21.602Z,57.27
2018-12-23T12:46:54.930Z,42.27
2018-12-23T12:49:27.978Z,46.47
2018-12-23T12:52:01.108Z,48.97
2018-12-23T12:54:34.194Z,48.43
2018-12-23T12:57:07.488Z,46.77
2018-12-23T12:59:40.720Z,54.30
2018-12-23T13:02:14.134Z,46.10
2018-12-23T13:04:48.594Z,47.27
2018-12-23T13:07:21.845Z,47.53
2018-12-23T13:09:54.858Z,44.15
2018-12-23T13:12:27.966Z,44.53
2018-12-23T13:15:01.122Z,39.57
2018-12-23T13:17:34.426Z,48.30
2018-12-23T13:20:08.100Z,39.07
2018-12-23T13:22:44.581Z,43.23
2018-12-23T13:25:17.948Z,36.65
2018-12-23T13:27:51.697Z,53.90
2018-12-23T13:30:25.151Z,45.83
2018-12-23T13:32:59.519Z,35.73
2018-12-23T13:35:32.614Z,47.87
2018-12-23T13:38:06.492Z,39.63
2018-12-23T13:40:48.531Z,35.58
2018-12-23T13:43:51.951Z,40.75
2018-12-23T13:46:49.394Z,41.43
2018-12-23T13:52:39.885Z,37.10
2018-12-23T13:55:44.328Z,41.73
2018-12-23T13:58:29.607Z,38.80
2018-12-23T14:01:14.874Z,36.70
2018-12-23T14:04:06.567Z,39.30
2018-12-23T14:07:15.521Z,37.70
2018-12-23T14:12:50.071Z,33.07
2018-12-23T14:15:23.630Z,39.10
2018-12-23T14:17:57.336Z,40.28
2018-12-23T14:20:30.942Z,41.07
2018-12-23T14:23:05.219Z,42.63
2018-12-23T14:25:39.430Z,32.90
2018-12-23T14:28:13.093Z,30.13
2018-12-23T14:30:46.485Z,38.67
2018-12-23T14:33:19.790Z,34.20
2018-12-23T14:35:53.250Z,34.50
2018-12-23T14:38:26.411Z,36.00
2018-12-23T14:41:00.015Z,33.30
2018-12-23T14:43:34.477Z,35.73
2018-12-23T14:46:07.456Z,36.83
2018-12-23T14:48:40.631Z,31.80
2018-12-23T14:51:14.114Z,48.43
2018-12-23T14:53:47.152Z,32.40
2018-12-23T14:56:20.456Z,31.63
2018-12-23T14:58:53.564Z,32.73
2018-12-23T15:01:26.640Z,38.77
2018-12-23T15:03:59.816Z,35.43
2018-12-23T15:06:32.823Z,42.53
2018-12-23T15:09:06.651Z,25.40
2018-12-23T15:11:40.122Z,33.67
2018-12-23T15:14:13.613Z,39.03
2018-12-23T15:16:46.862Z,37.90
2018-12-23T15:19:20.145Z,29.77
2018-12-23T15:21:53.493Z,34.83
2018-12-23T15:24:26.657Z,34.73
2018-12-23T15:27:00.340Z,28.67
2018-12-23T15:29:33.504Z,28.47
2018-12-23T15:32:06.561Z,32.80
2018-12-23T15:34:39.649Z,33.53
2018-12-23T15:37:12.967Z,30.82
2018-12-23T15:39:46.239Z,27.43
2018-12-23T15:42:19.847Z,29.10
2018-12-23T15:44:53.407Z,29.53
2018-12-23T15:47:27.445Z,36.33
2018-12-23T15:50:01.120Z,39.23
2018-12-23T15:52:34.387Z,26.00
2018-12-23T15:55:08.226Z,29.50
2018-12-23T15:57:41.349Z,26.13
2018-12-23T16:00:14.446Z,35.00
2018-12-23T16:02:47.583Z,31.07
2018-12-23T16:05:21.046Z,28.83
2018-12-23T16:07:54.035Z,29.30
2018-12-23T16:10:27.114Z,24.60
2018-12-23T16:13:00.395Z,25.17
2018-12-23T16:15:33.471Z,34.00
2018-12-23T16:18:10.490Z,26.90
2018-12-23T16:20:57.673Z,29.90
2018-12-23T16:23:34.127Z,32.50
2018-12-23T16:26:13.545Z,31.20
2018-12-23T16:28:54.836Z,32.25
2018-12-23T16:31:32.630Z,33.90
2018-12-23T16:34:05.843Z,22.77
2018-12-23T16:36:39.324Z,28.93
2018-12-23T16:39:12.835Z,37.80
2018-12-23T16:41:47.890Z,29.80
2018-12-23T16:44:20.978Z,27.80
2018-12-23T16:46:54.638Z,38.35
2018-12-23T16:49:27.520Z,37.20
2018-12-23T16:52:00.858Z,37.42
2018-12-23T16:54:33.851Z,30.07
2018-12-23T16:57:06.966Z,35.43
2018-12-23T16:59:40.170Z,39.20
2018-12-23T17:02:13.434Z,33.90
2018-12-23T17:04:46.482Z,36.67
2018-12-23T17:07:19.705Z,37.30
2018-12-23T17:09:52.610Z,37.90
2018-12-23T17:12:26.659Z,32.03
2018-12-23T17:14:59.886Z,34.47
2018-12-23T17:17:33.004Z,38.57
2018-12-23T17:20:07.595Z,32.73
2018-12-23T17:22:40.842Z,36.90
2018-12-23T17:25:14.611Z,32.08
2018-12-23T17:27:48.199Z,48.53
2018-12-23T17:30:21.307Z,48.10
2018-12-23T17:32:54.606Z,32.58
2018-12-23T17:35:27.585Z,31.77
2018-12-23T17:38:00.640Z,38.08
2018-12-23T17:40:33.851Z,41.18
2018-12-23T17:43:06.881Z,40.48
2018-12-23T17:45:40.065Z,38.23
2018-12-23T17:48:13.621Z,30.72
2018-12-23T17:50:46.802Z,40.40
2018-12-23T17:53:20.337Z,39.83
2018-12-23T17:55:53.421Z,37.70
2018-12-23T17:58:26.360Z,37.10
2018-12-23T18:01:02.999Z,73.53
2018-12-23T18:03:36.251Z,31.93
2018-12-23T18:06:09.302Z,29.40
2018-12-23T18:08:42.505Z,27.77
2018-12-23T18:11:15.715Z,45.13
2018-12-23T18:13:49.040Z,35.97
2018-12-23T18:16:24.637Z,36.20
2018-12-23T18:18:56.522Z,39.40
2018-12-23T18:21:29.761Z,38.83
2018-12-23T18:24:02.805Z,34.60
2018-12-23T18:26:35.959Z,33.17
2018-12-23T18:29:09.039Z,37.65
2018-12-23T18:31:42.075Z,30.53
2018-12-23T18:34:15.232Z,32.87
2018-12-23T18:36:48.406Z,35.90
2018-12-23T18:39:21.786Z,48.80
2018-12-23T18:41:54.985Z,37.40
2018-12-23T18:44:28.006Z,37.43
2018-12-23T18:47:00.963Z,36.17
2018-12-23T18:49:34.264Z,33.28
2018-12-23T18:52:07.615Z,35.63
2018-12-23T18:54:40.859Z,37.38
2018-12-23T18:57:13.955Z,47.77
2018-12-23T18:59:47.162Z,40.97
2018-12-23T19:02:20.520Z,38.90
2018-12-23T19:04:53.579Z,36.10
2018-12-23T19:07:26.744Z,32.97
2018-12-23T19:10:00.098Z,34.73
2018-12-23T19:12:50.717Z,38.15
2018-12-23T19:15:56.810Z,40.07
2018-12-23T19:18:50.798Z,42.07
2018-12-23T19:21:49.469Z,37.75
2018-12-23T19:24:42.213Z,50.57
2018-12-23T19:31:01.442Z,34.47
2018-12-23T19:33:59.210Z,38.60
2018-12-23T19:37:00.172Z,34.20
2018-12-23T19:40:09.422Z,35.00
2018-12-23T19:43:23.670Z,36.97
2018-12-23T19:46:14.506Z,37.53
2018-12-23T19:49:02.888Z,47.37
2018-12-23T19:52:05.428Z,39.57
2018-12-23T19:58:18.761Z,48.53
2018-12-23T20:01:01.296Z,42.20
2018-12-23T20:03:52.049Z,41.07
2018-12-23T20:06:48.916Z,44.87
2018-12-23T20:14:53.012Z,43.90
2018-12-23T20:17:45.440Z,38.77
2018-12-23T20:20:48.179Z,37.83
2018-12-23T20:23:56.516Z,45.10
2018-12-23T20:26:42.124Z,42.07
2018-12-23T20:29:42.328Z,46.87
2018-12-23T20:32:43.209Z,37.23
2018-12-23T20:35:40.090Z,42.87
2018-12-23T20:42:03.483Z,40.73
2018-12-23T20:44:48.155Z,37.10
2018-12-23T20:47:38.108Z,42.20
2018-12-23T20:50:19.309Z,61.35
2018-12-23T20:53:00.717Z,38.53
2018-12-23T20:56:09.213Z,38.10
2018-12-23T21:02:37.926Z,34.10
2018-12-23T21:05:16.346Z,44.57
2018-12-23T21:08:25.272Z,35.85
2018-12-23T21:11:19.991Z,43.20
2018-12-23T21:17:34.738Z,44.80
2018-12-23T21:20:27.981Z,39.43
2018-12-23T21:23:03.756Z,38.75
2018-12-23T21:26:15.601Z,51.97
2018-12-23T21:29:22.560Z,38.17
2018-12-23T21:32:03.732Z,33.03
2018-12-23T21:35:00.561Z,45.63
2018-12-23T21:37:50.560Z,40.97
2018-12-23T21:40:50.907Z,37.03
2018-12-23T21:43:39.084Z,51.17
2018-12-23T21:46:20.797Z,33.40
2018-12-23T21:52:04.612Z,41.70
2018-12-23T21:54:43.377Z,46.93
2018-12-23T21:57:35.452Z,43.37
2018-12-23T22:00:29.471Z,43.63
2018-12-23T22:03:35.566Z,45.00
2018-12-23T22:06:54.687Z,40.60
2018-12-23T22:13:34.864Z,34.58
2018-12-23T22:22:26.081Z,43.67
2018-12-23T22:24:58.950Z,50.47
2018-12-23T22:27:31.739Z,47.00
2018-12-23T22:30:05.011Z,47.62
2018-12-23T22:32:38.232Z,45.52
2018-12-23T22:35:11.453Z,49.98
2018-12-23T22:37:44.558Z,42.47
2018-12-23T22:40:17.781Z,52.00
2018-12-23T22:42:50.922Z,40.33
2018-12-23T22:45:24.595Z,48.00
2018-12-23T22:47:57.489Z,47.07
2018-12-23T22:50:30.636Z,56.15
2018-12-23T22:53:05.091Z,55.70
2018-12-23T22:55:42.624Z,49.13
2018-12-23T22:58:16.267Z,58.00
2018-12-23T23:00:49.597Z,47.47
2018-12-23T23:03:22.574Z,57.07
2018-12-23T23:05:55.675Z,46.25
2018-12-23T23:08:29.039Z,55.20
2018-12-23T23:11:02.298Z,46.73
2018-12-23T23:13:35.601Z,47.63
2018-12-23T23:16:19.744Z,52.48
2018-12-23T23:18:53.013Z,53.38
2018-12-23T23:21:25.971Z,48.68
2018-12-23T23:23:59.049Z,53.05
2018-12-23T23:26:31.824Z,50.23
2018-12-23T23:29:04.868Z,57.43
2018-12-23T23:31:37.847Z,51.20
2018-12-23T23:34:11.302Z,52.17
2018-12-23T23:36:44.429Z,58.30
2018-12-23T23:39:17.391Z,55.53
2018-12-23T23:41:58.125Z,50.77
2018-12-23T23:44:25.116Z,55.77
2018-12-23T23:46:58.480Z,54.63
2018-12-23T23:49:31.943Z,74.85
2018-12-23T23:52:05.031Z,85.63
2018-12-23T23:54:38.078Z,71.90
2018-12-23T23:57:11.202Z,81.10
2018-12-23T23:59:44.254Z,77.00
